Chazy, NY (12921)

8:17 AM EDT on September 01, 2015 (GMT -0400)
Chazy, NY | | Change Station
CLOSE
Current Station
Personal Weather Station
Location: Chazy, NY
Elevation: 167 ft
Nearby Weather Stations

Elev 167 ft 44.88 °N, 73.43 °W | Updated 15 seconds ago

Partly Cloudy
Partly Cloudy
64.2 °F
Feels Like 64.2 °F
N
1.0
Wind Variable Wind from East
Gusts 2.0 mph

Today
High -- | Low -- °F
--% Chance of Precip.
Yesterday
High -- | Low -- °F
Precip. -- in
6:15 AM 7:31 PM
Waning Gibbous, 89% visible
Pressure 30.07 in
Visibility 8.0 miles
Clouds Clear
Dew Point 63 °F
Humidity 98%
Rainfall 0.00 in
Snow Depth Not available.
UV 1 out of 12
Pollen 8.10 out of 12
Air Quality Not available.
Flu Activity Not available.
METAR KPBG 011153Z AUTO 00000KT 8SM CLR 17/16 A3007 RMK AO2 SLP183 T01720156 10194 20144 53010
Pressure 30.07 in
Visibility 8.0 miles
Clouds Clear
Dew Point 63 °F
Humidity 98%
Rainfall 0.00 in
Snow Depth Not available.
UV 1 out of 12
Pollen 8.10 out of 12
Air Quality Not available.
Flu Activity Not available.
METAR KPBG 011153Z AUTO 00000KT 8SM CLR 17/16 A3007 RMK AO2 SLP183 T01720156 10194 20144 53010

10-Day Weather Forecast

×

Almanac

Astronomy

Sep. 01, 2015 Rise Set
Actual Time
Civil Twilight
Nautical Twilight
Astronomical Twilight
Moon
Length of Visible Light
Length of Day
Tomorrow will be .
, % of the Moon is Illuminated

Today's Extremes

State Highs State Lows

Community

WunderPhotos

Upload Photos

1,851,508 photos uploaded!

WunderBlogs® & News

Nearby

Air Quality

  Air Quality AQ Index Pollutant
Not available.

Snow Depth

Station Depth Elevation

Earthquake Activity

City Distance Mag. Time & Date
Minimum magnitude displayed is 2.5.

Coastal Water Temperatures

Place Temperature

Stations

Nearby Weather Stations

Station Location Temp. Windchill Dew Point Humidity Wind Precip. Elev Updated Type